Time;durP1;ratioP1;P1;durP2;ratioP2;P2;SDS_P1;SDS_P2;PMS_P1;PMS_P2;Temp;Humidity;BMP_temperature;BMP_pressure;BME280_temperature;BME280_humidity;BME280_pressure;Samples;Min_cycle;Max_cycle;Signal;HPM_P1;HPM_P2
2023/04/12 00:01:44;;;;;;;5.95;2.15;;;;;;;;;;5027391;28;20054;-71
2023/04/12 00:04:27;;;;;;;8.20;2.40;;;;;;;;;;5027560;28;20060;-72
2023/04/12 00:07:01;;;;;;;16.05;2.65;;;;;;;;;;5029061;28;20053;-72
2023/04/12 00:09:39;;;;;;;7.93;2.25;;;;;;;;;;5025586;28;20060;-72
2023/04/12 00:12:12;;;;;;;9.80;2.10;;;;;;;;;;5028974;28;20543;-72
2023/04/12 00:14:45;;;;;;;7.05;2.00;;;;;;;;;;5028031;28;20124;-73
2023/04/12 00:17:20;;;;;;;6.53;2.25;;;;;;;;;;5029007;28;20053;-75
2023/04/12 00:19:52;;;;;;;7.50;2.45;;;;;;;;;;5028593;28;20404;-71
2023/04/12 00:22:33;;;;;;;3.63;1.80;;;;;;;;;;5029029;28;20496;-72
2023/04/12 00:25:06;;;;;;;4.60;1.77;;;;;;;;;;5026990;28;20610;-74
2023/04/12 00:27:43;;;;;;;5.50;1.83;;;;;;;;;;5027903;28;20034;-73
2023/04/12 00:30:16;;;;;;;9.30;2.83;;;;;;;;;;5027716;28;20053;-72
2023/04/12 00:32:50;;;;;;;3.08;2.10;;;;;;;;;;5011337;28;20053;-72
2023/04/12 00:35:26;;;;;;;5.97;1.98;;;;;;;;;;5026482;28;20058;-72
2023/04/12 00:37:57;;;;;;;7.07;2.22;;;;;;;;;;5027230;28;20045;-72
2023/04/12 00:40:28;;;;;;;8.43;1.95;;;;;;;;;;5026606;28;20404;-73
2023/04/12 00:42:58;;;;;;;5.45;1.73;;;;;;;;;;5027181;28;20060;-72
2023/04/12 00:45:30;;;;;;;9.85;1.63;;;;;;;;;;5027562;28;20054;-73
2023/04/12 00:48:01;;;;;;;8.32;2.53;;;;;;;;;;5026072;28;20535;-72
2023/04/12 00:50:32;;;;;;;5.70;2.15;;;;;;;;;;5027048;28;20396;-72
2023/04/12 00:53:03;;;;;;;8.18;2.20;;;;;;;;;;5040631;28;20052;-73
2023/04/12 00:55:36;;;;;;;5.45;1.85;;;;;;;;;;5047330;28;20048;-72
2023/04/12 00:58:06;;;;;;;3.92;1.77;;;;;;;;;;5046488;28;20492;-72
2023/04/12 01:00:37;;;;;;;4.65;1.52;;;;;;;;;;5046113;28;20516;-73
2023/04/12 01:03:15;;;;;;;6.72;1.77;;;;;;;;;;5046355;28;20067;-73
2023/04/12 01:06:03;;;;;;;4.47;1.50;;;;;;;;;;5045701;28;20056;-72
2023/04/12 01:08:39;;;;;;;4.93;1.70;;;;;;;;;;5045980;28;20049;-72
2023/04/12 01:11:31;;;;;;;5.25;1.73;;;;;;;;;;5044703;28;20045;-73
2023/04/12 01:14:19;;;;;;;5.03;1.80;;;;;;;;;;5043532;28;20508;-73
2023/04/12 01:16:57;;;;;;;3.88;1.92;;;;;;;;;;5044793;28;20068;-72
2023/04/12 01:19:36;;;;;;;5.30;1.50;;;;;;;;;;5044096;28;20076;-73
2023/04/12 01:22:42;;;;;;;3.80;1.70;;;;;;;;;;5046890;28;20044;-73
2023/04/12 01:25:45;;;;;;;4.88;1.80;;;;;;;;;;5046508;28;20048;-73
2023/04/12 01:28:21;;;;;;;3.92;1.63;;;;;;;;;;5044809;28;20060;-73
2023/04/12 01:30:54;;;;;;;4.13;1.77;;;;;;;;;;5045381;28;20059;-73
2023/04/12 01:33:30;;;;;;;4.55;1.75;;;;;;;;;;5044774;28;20417;-72
2023/04/12 01:36:03;;;;;;;8.48;1.90;;;;;;;;;;5046471;28;20053;-72
2023/04/12 01:38:35;;;;;;;5.32;1.90;;;;;;;;;;5045099;28;20589;-73
2023/04/12 01:41:08;;;;;;;4.47;1.65;;;;;;;;;;5045238;28;20436;-73
2023/04/12 01:43:46;;;;;;;8.55;2.03;;;;;;;;;;5045441;28;20060;-73
2023/04/12 01:46:21;;;;;;;4.88;2.00;;;;;;;;;;5045207;28;20380;-72
2023/04/12 01:48:53;;;;;;;3.38;1.67;;;;;;;;;;5046674;28;20041;-77
2023/04/12 01:51:51;;;;;;;4.65;1.58;;;;;;;;;;5045482;28;20419;-73
2023/04/12 01:54:32;;;;;;;4.90;1.60;;;;;;;;;;5045734;28;20056;-73
2023/04/12 01:57:04;;;;;;;4.80;2.10;;;;;;;;;;5047579;28;20052;-72
2023/04/12 01:59:42;;;;;;;2.28;1.60;;;;;;;;;;5049136;28;20049;-73
2023/04/12 02:02:13;;;;;;;3.58;1.77;;;;;;;;;;5048830;28;20059;-73
2023/04/12 02:04:45;;;;;;;3.22;1.45;;;;;;;;;;5050326;28;20048;-72
2023/04/12 02:07:17;;;;;;;4.43;1.50;;;;;;;;;;5048167;28;20065;-73
2023/04/12 02:09:48;;;;;;;3.25;1.70;;;;;;;;;;5050484;28;20048;-72
2023/04/12 02:12:23;;;;;;;2.55;1.80;;;;;;;;;;5049100;28;20048;-80
2023/04/12 02:14:56;;;;;;;10.18;2.08;;;;;;;;;;5050468;28;20049;-73
2023/04/12 02:17:28;;;;;;;5.63;1.80;;;;;;;;;;5050236;28;20068;-73
2023/04/12 02:19:58;;;;;;;3.67;1.73;;;;;;;;;;5050122;28;20048;-72
2023/04/12 02:22:30;;;;;;;3.60;1.80;;;;;;;;;;5048258;28;20052;-72
2023/04/12 02:25:05;;;;;;;4.78;1.90;;;;;;;;;;5049338;28;20064;-73
2023/04/12 02:27:35;;;;;;;7.78;1.88;;;;;;;;;;5049265;28;20037;-72
2023/04/12 02:30:06;;;;;;;5.53;1.70;;;;;;;;;;5048319;28;20060;-73
2023/04/12 02:32:42;;;;;;;4.03;1.73;;;;;;;;;;5048420;28;20075;-73
2023/04/12 02:35:21;;;;;;;4.75;1.55;;;;;;;;;;5048322;28;20049;-72
2023/04/12 02:37:56;;;;;;;5.25;1.77;;;;;;;;;;5047804;28;20061;-73
2023/04/12 02:40:30;;;;;;;8.40;2.05;;;;;;;;;;5048139;28;20060;-73
2023/04/12 02:43:00;;;;;;;4.80;1.42;;;;;;;;;;5048593;28;20063;-73
2023/04/12 02:45:30;;;;;;;3.92;1.90;;;;;;;;;;5048476;28;20060;-72
2023/04/12 02:48:00;;;;;;;5.60;1.83;;;;;;;;;;5049928;28;20048;-72
2023/04/12 02:50:30;;;;;;;4.95;1.85;;;;;;;;;;5049482;28;20526;-73
2023/04/12 02:53:10;;;;;;;5.13;2.00;;;;;;;;;;5048057;28;20527;-72
2023/04/12 02:55:44;;;;;;;3.15;1.95;;;;;;;;;;5047734;28;20045;-72
2023/04/12 02:58:16;;;;;;;4.45;1.52;;;;;;;;;;5047598;28;20071;-72
2023/04/12 03:00:49;;;;;;;8.77;2.00;;;;;;;;;;5047739;28;20064;-73
2023/04/12 03:03:27;;;;;;;6.68;1.65;;;;;;;;;;5047589;28;20069;-72
2023/04/12 03:06:10;;;;;;;8.10;1.92;;;;;;;;;;5047707;28;20049;-72
2023/04/12 03:08:41;;;;;;;2.83;1.65;;;;;;;;;;5047857;28;20052;-73
2023/04/12 03:11:12;;;;;;;2.67;1.88;;;;;;;;;;5048050;28;20048;-73
2023/04/12 03:13:41;;;;;;;5.82;1.63;;;;;;;;;;5048252;28;20057;-73
2023/04/12 03:16:22;;;;;;;4.63;1.77;;;;;;;;;;5047707;28;20519;-73
2023/04/12 03:19:01;;;;;;;5.82;1.90;;;;;;;;;;5047588;28;20049;-73
2023/04/12 03:21:32;;;;;;;4.35;2.15;;;;;;;;;;5049362;28;20049;-72
2023/04/12 03:24:06;;;;;;;2.70;1.83;;;;;;;;;;5047367;28;20064;-73
2023/04/12 03:26:37;;;;;;;4.82;1.92;;;;;;;;;;5047364;28;20155;-73
2023/04/12 03:29:15;;;;;;;3.25;1.75;;;;;;;;;;5047976;28;20061;-73
2023/04/12 03:31:48;;;;;;;4.93;2.17;;;;;;;;;;5047112;28;20543;-73
2023/04/12 03:34:19;;;;;;;1.90;1.70;;;;;;;;;;5048261;28;20495;-73
2023/04/12 03:36:54;;;;;;;1.95;1.70;;;;;;;;;;5047182;28;20049;-73
2023/04/12 03:39:39;;;;;;;3.60;2.10;;;;;;;;;;5047339;28;20064;-73
2023/04/12 03:42:10;;;;;;;3.83;1.83;;;;;;;;;;5046974;28;20049;-72
2023/04/12 03:45:03;;;;;;;4.72;2.10;;;;;;;;;;5046955;28;20057;-73
2023/04/12 03:47:34;;;;;;;4.20;1.98;;;;;;;;;;5048278;28;20045;-73
2023/04/12 03:50:06;;;;;;;2.40;1.80;;;;;;;;;;5048642;28;20515;-72
2023/04/12 03:52:46;;;;;;;3.42;2.00;;;;;;;;;;5047220;28;20053;-72
2023/04/12 03:55:17;;;;;;;6.30;2.03;;;;;;;;;;5048262;28;20037;-73
2023/04/12 03:57:50;;;;;;;10.20;2.50;;;;;;;;;;5046513;28;20079;-71
2023/04/12 04:00:23;;;;;;;5.72;2.28;;;;;;;;;;5046961;28;20549;-72
2023/04/12 04:03:04;;;;;;;5.30;2.42;;;;;;;;;;5046195;28;20518;-73
2023/04/12 04:05:42;;;;;;;7.57;2.53;;;;;;;;;;5046803;28;20055;-72
2023/04/12 04:08:14;;;;;;;5.57;2.40;;;;;;;;;;5045720;28;20064;-73
2023/04/12 04:10:51;;;;;;;6.40;2.15;;;;;;;;;;5046979;28;20780;-72
2023/04/12 04:13:26;;;;;;;5.15;2.30;;;;;;;;;;5046515;28;20057;-72
2023/04/12 04:16:04;;;;;;;4.55;2.20;;;;;;;;;;5046248;28;20053;-73
2023/04/12 04:18:36;;;;;;;4.00;2.20;;;;;;;;;;5046711;28;20055;-72
2023/04/12 04:21:10;;;;;;;3.58;2.03;;;;;;;;;;5045592;28;20078;-71
2023/04/12 04:23:43;;;;;;;6.88;2.40;;;;;;;;;;5046887;28;20052;-72
2023/04/12 04:26:15;;;;;;;7.07;2.35;;;;;;;;;;5047673;28;20048;-72
2023/04/12 04:28:54;;;;;;;6.07;2.22;;;;;;;;;;5046057;28;20052;-73
2023/04/12 04:31:35;;;;;;;6.05;2.42;;;;;;;;;;5046505;28;20060;-72
2023/04/12 04:34:07;;;;;;;6.55;2.83;;;;;;;;;;5046798;28;20060;-73
2023/04/12 04:36:44;;;;;;;4.07;2.35;;;;;;;;;;5046221;28;20041;-72
2023/04/12 04:39:22;;;;;;;6.55;2.28;;;;;;;;;;5046428;28;20052;-72
2023/04/12 04:41:56;;;;;;;9.07;2.70;;;;;;;;;;5030437;28;20550;-72
2023/04/12 04:44:39;;;;;;;4.97;2.33;;;;;;;;;;5045759;28;20060;-73
2023/04/12 04:47:11;;;;;;;7.05;2.22;;;;;;;;;;5046760;28;20056;-72
2023/04/12 04:49:42;;;;;;;5.05;2.17;;;;;;;;;;5046898;28;20048;-72
2023/04/12 04:52:22;;;;;;;2.72;1.98;;;;;;;;;;5046005;28;20535;-73
2023/04/12 04:54:57;;;;;;;4.32;1.83;;;;;;;;;;5046027;28;20049;-72
2023/04/12 04:57:33;;;;;;;5.03;2.33;;;;;;;;;;5045110;28;20049;-72
2023/04/12 05:00:10;;;;;;;3.05;2.15;;;;;;;;;;5045810;28;20052;-73
2023/04/12 05:02:45;;;;;;;4.35;2.33;;;;;;;;;;5045473;28;20404;-73
2023/04/12 05:05:24;;;;;;;2.90;2.08;;;;;;;;;;5045892;28;20093;-73
2023/04/12 05:08:12;;;;;;;5.80;2.03;;;;;;;;;;5047272;28;20045;-72
2023/04/12 05:10:53;;;;;;;3.83;2.30;;;;;;;;;;5045098;28;20411;-73
2023/04/12 05:13:26;;;;;;;5.97;2.03;;;;;;;;;;5045848;28;20068;-73
2023/04/12 05:15:57;;;;;;;6.75;2.33;;;;;;;;;;5045493;28;20511;-73
2023/04/12 05:18:27;;;;;;;7.90;2.70;;;;;;;;;;5046475;28;20045;-73
2023/04/12 05:21:02;;;;;;;3.33;2.08;;;;;;;;;;5044997;28;20057;-73
2023/04/12 05:23:42;;;;;;;7.15;2.40;;;;;;;;;;5045673;28;20056;-73
2023/04/12 05:26:13;;;;;;;6.32;2.55;;;;;;;;;;5046558;28;20049;-73
2023/04/12 05:28:47;;;;;;;7.47;2.30;;;;;;;;;;5045044;28;20060;-73
2023/04/12 05:31:20;;;;;;;4.13;2.28;;;;;;;;;;5044967;28;20045;-72
2023/04/12 05:33:54;;;;;;;3.67;2.20;;;;;;;;;;5045184;28;20066;-73
2023/04/12 05:36:30;;;;;;;8.75;2.28;;;;;;;;;;5045121;28;20525;-72
2023/04/12 05:39:04;;;;;;;4.38;2.50;;;;;;;;;;5045353;28;20053;-73
2023/04/12 05:41:36;;;;;;;6.07;2.45;;;;;;;;;;5045600;28;20048;-72
2023/04/12 05:44:07;;;;;;;4.95;2.50;;;;;;;;;;5046353;28;20049;-73
2023/04/12 05:46:38;;;;;;;6.68;2.35;;;;;;;;;;5045430;28;20419;-73
2023/04/12 05:49:09;;;;;;;7.13;2.47;;;;;;;;;;5045207;28;20057;-73
2023/04/12 05:51:40;;;;;;;9.10;3.08;;;;;;;;;;5045406;28;20060;-74
2023/04/12 05:54:20;;;;;;;5.88;2.60;;;;;;;;;;5045064;28;20057;-73
2023/04/12 05:56:56;;;;;;;9.25;2.60;;;;;;;;;;5045697;28;20080;-72
2023/04/12 05:59:26;;;;;;;5.03;2.47;;;;;;;;;;5045283;28;20048;-72
2023/04/12 06:01:56;;;;;;;8.45;2.40;;;;;;;;;;5044893;28;20071;-72
2023/04/12 06:04:27;;;;;;;7.97;2.53;;;;;;;;;;5044737;28;20068;-73
2023/04/12 06:07:16;;;;;;;8.90;2.22;;;;;;;;;;5045051;28;20053;-73
2023/04/12 06:09:48;;;;;;;5.97;2.67;;;;;;;;;;5045044;28;20064;-73
2023/04/12 06:12:22;;;;;;;6.65;2.42;;;;;;;;;;5044786;28;20419;-73
2023/04/12 06:14:52;;;;;;;6.07;2.72;;;;;;;;;;5044970;28;20534;-73
2023/04/12 06:17:22;;;;;;;4.13;2.60;;;;;;;;;;5045844;28;20049;-72
2023/04/12 06:19:56;;;;;;;8.38;2.72;;;;;;;;;;5044866;28;20059;-73
2023/04/12 06:22:26;;;;;;;6.15;2.80;;;;;;;;;;5045139;28;21265;-72
2023/04/12 06:24:56;;;;;;;3.10;2.17;;;;;;;;;;5046478;28;20045;-72
2023/04/12 06:27:26;;;;;;;7.68;2.88;;;;;;;;;;5045182;28;20053;-72
2023/04/12 06:29:57;;;;;;;3.30;2.30;;;;;;;;;;5044642;28;20048;-72
2023/04/12 06:32:28;;;;;;;6.22;2.75;;;;;;;;;;5044727;28;20399;-72
2023/04/12 06:35:00;;;;;;;6.82;2.55;;;;;;;;;;5044990;28;20052;-73
2023/04/12 06:37:30;;;;;;;10.20;2.55;;;;;;;;;;5045366;28;20067;-73
2023/04/12 06:40:00;;;;;;;5.72;2.50;;;;;;;;;;5045721;28;20048;-72
2023/04/12 06:42:31;;;;;;;6.47;2.60;;;;;;;;;;5045261;28;20037;-72
2023/04/12 06:45:02;;;;;;;6.18;2.63;;;;;;;;;;5047524;28;20064;-72
2023/04/12 06:47:32;;;;;;;4.45;2.85;;;;;;;;;;5049615;28;20067;-72
2023/04/12 06:50:05;;;;;;;9.70;2.90;;;;;;;;;;5049003;28;20389;-73
2023/04/12 06:52:36;;;;;;;5.00;2.50;;;;;;;;;;5049152;28;20053;-73
2023/04/12 06:55:07;;;;;;;4.88;2.88;;;;;;;;;;5047376;28;20056;-72
2023/04/12 06:57:37;;;;;;;3.72;2.85;;;;;;;;;;5048993;28;20041;-71
2023/04/12 07:00:08;;;;;;;4.85;2.92;;;;;;;;;;5047781;28;20462;-73
2023/04/12 07:02:39;;;;;;;4.63;2.67;;;;;;;;;;5049538;28;20800;-71
2023/04/12 07:05:10;;;;;;;7.63;2.92;;;;;;;;;;5048395;28;20061;-72
2023/04/12 07:07:40;;;;;;;4.03;2.85;;;;;;;;;;5049332;28;20041;-72
2023/04/12 07:10:10;;;;;;;4.65;2.97;;;;;;;;;;5049100;28;20049;-71
2023/04/12 07:12:41;;;;;;;7.80;3.00;;;;;;;;;;5048310;28;20602;-72
2023/04/12 07:15:11;;;;;;;5.22;2.75;;;;;;;;;;5049043;28;20044;-72
2023/04/12 07:17:44;;;;;;;7.97;2.78;;;;;;;;;;5047872;28;20547;-72
2023/04/12 07:20:14;;;;;;;4.93;2.55;;;;;;;;;;5048999;28;20045;-72
2023/04/12 07:22:44;;;;;;;4.85;2.40;;;;;;;;;;5049020;28;20044;-72
2023/04/12 07:25:14;;;;;;;7.28;2.60;;;;;;;;;;5048985;28;20554;-72
2023/04/12 07:27:45;;;;;;;4.18;2.35;;;;;;;;;;5048765;28;20045;-72
2023/04/12 07:30:18;;;;;;;8.27;2.72;;;;;;;;;;5048326;28;20511;-73
2023/04/12 07:32:48;;;;;;;3.50;2.50;;;;;;;;;;5048712;28;20060;-72
2023/04/12 07:35:19;;;;;;;4.90;2.47;;;;;;;;;;5048692;28;20052;-72
2023/04/12 07:37:50;;;;;;;6.45;2.70;;;;;;;;;;5048799;28;20434;-72
2023/04/12 07:40:20;;;;;;;5.57;2.80;;;;;;;;;;5048572;28;20052;-72
2023/04/12 07:42:51;;;;;;;9.60;3.05;;;;;;;;;;5048048;28;20044;-72
2023/04/12 07:45:21;;;;;;;4.80;2.78;;;;;;;;;;5048303;28;20076;-73
2023/04/12 07:47:54;;;;;;;4.65;2.38;;;;;;;;;;5048580;28;20044;-73
2023/04/12 07:50:25;;;;;;;4.55;2.28;;;;;;;;;;5048462;28;20048;-72
2023/04/12 07:53:23;;;;;;;6.50;2.50;;;;;;;;;;5048218;28;20041;-71
2023/04/12 07:55:55;;;;;;;14.20;2.50;;;;;;;;;;5045887;28;20041;-72
2023/04/12 07:58:25;;;;;;;4.82;2.20;;;;;;;;;;5047336;28;20053;-71
2023/04/12 08:00:57;;;;;;;4.10;2.33;;;;;;;;;;5048320;28;20060;-72
2023/04/12 08:03:29;;;;;;;4.00;2.53;;;;;;;;;;5048038;28;20063;-71
2023/04/12 08:06:00;;;;;;;3.80;2.40;;;;;;;;;;5048310;28;20048;-72
2023/04/12 08:08:30;;;;;;;5.93;2.30;;;;;;;;;;5047948;28;20057;-72
2023/04/12 08:11:05;;;;;;;4.72;2.15;;;;;;;;;;5047867;28;20048;-72
2023/04/12 08:13:35;;;;;;;3.25;2.20;;;;;;;;;;5046724;28;20839;-72
2023/04/12 08:16:07;;;;;;;7.13;2.20;;;;;;;;;;5047010;28;20052;-71
2023/04/12 08:18:38;;;;;;;5.05;2.42;;;;;;;;;;5048181;28;20056;-72
2023/04/12 08:21:10;;;;;;;2.92;2.28;;;;;;;;;;5048074;28;20508;-72
2023/04/12 08:23:42;;;;;;;5.10;1.98;;;;;;;;;;5047976;28;20048;-72
2023/04/12 08:26:13;;;;;;;6.63;2.20;;;;;;;;;;5047579;28;20041;-72
2023/04/12 08:28:44;;;;;;;6.15;2.25;;;;;;;;;;5046667;28;20061;-72
2023/04/12 08:31:18;;;;;;;2.88;2.03;;;;;;;;;;5047871;28;20056;-71
2023/04/12 08:33:49;;;;;;;7.60;2.80;;;;;;;;;;5047541;28;20543;-73
2023/04/12 08:36:18;;;;;;;3.72;2.33;;;;;;;;;;5047341;28;20480;-72
2023/04/12 08:38:51;;;;;;;8.05;2.40;;;;;;;;;;5047620;28;20076;-72
2023/04/12 08:41:22;;;;;;;7.78;2.10;;;;;;;;;;5047527;28;20053;-72
2023/04/12 08:43:56;;;;;;;5.03;2.33;;;;;;;;;;5047610;28;20053;-73
2023/04/12 08:46:28;;;;;;;4.93;2.58;;;;;;;;;;5047775;28;20053;-72
2023/04/12 08:48:59;;;;;;;5.03;2.17;;;;;;;;;;5046165;28;20538;-73
2023/04/12 08:51:31;;;;;;;4.32;2.00;;;;;;;;;;5045808;28;20060;-72
2023/04/12 08:54:01;;;;;;;3.38;2.30;;;;;;;;;;5047349;28;20400;-72
2023/04/12 08:56:32;;;;;;;4.75;2.83;;;;;;;;;;5047076;28;20056;-77
2023/04/12 08:59:03;;;;;;;3.25;2.15;;;;;;;;;;5046802;28;20060;-72
2023/04/12 09:01:36;;;;;;;3.90;2.50;;;;;;;;;;5047418;28;20045;-73
2023/04/12 09:04:07;;;;;;;4.00;2.30;;;;;;;;;;5046660;28;20040;-73
2023/04/12 09:06:38;;;;;;;6.07;1.95;;;;;;;;;;5046617;28;20055;-72
2023/04/12 09:09:08;;;;;;;5.40;2.15;;;;;;;;;;5047497;28;20491;-74
2023/04/12 09:11:39;;;;;;;4.93;2.00;;;;;;;;;;5047116;28;20045;-73
2023/04/12 09:14:24;;;;;;;12.55;2.63;;;;;;;;;;5046692;28;20049;-73
2023/04/12 09:16:55;;;;;;;7.28;1.98;;;;;;;;;;5046668;28;20484;-73
2023/04/12 09:19:35;;;;;;;5.90;2.17;;;;;;;;;;5046265;28;20049;-72
2023/04/12 09:22:07;;;;;;;4.72;1.67;;;;;;;;;;5045501;28;20053;-72
2023/04/12 09:24:52;;;;;;;3.88;1.77;;;;;;;;;;5046451;28;20041;-73
2023/04/12 09:27:24;;;;;;;4.25;1.60;;;;;;;;;;5046387;28;20458;-72
2023/04/12 09:30:10;;;;;;;4.18;1.90;;;;;;;;;;5045693;28;20053;-73
2023/04/12 09:32:41;;;;;;;3.95;1.58;;;;;;;;;;5047091;28;20051;-76
2023/04/12 09:35:12;;;;;;;3.47;1.80;;;;;;;;;;5046358;28;20056;-73
2023/04/12 09:37:42;;;;;;;6.35;1.77;;;;;;;;;;5046354;28;20060;-73
2023/04/12 09:40:12;;;;;;;3.70;1.80;;;;;;;;;;5046305;28;20052;-73
2023/04/12 09:42:52;;;;;;;6.13;1.98;;;;;;;;;;5046694;28;20416;-72
2023/04/12 09:45:26;;;;;;;6.80;2.13;;;;;;;;;;5044781;28;20523;-73
2023/04/12 09:47:57;;;;;;;14.25;2.00;;;;;;;;;;5044944;28;20080;-72
2023/04/12 09:50:29;;;;;;;14.70;2.35;;;;;;;;;;5046739;28;20492;-72
2023/04/12 09:53:01;;;;;;;10.32;2.47;;;;;;;;;;5046706;28;20044;-74
2023/04/12 09:55:32;;;;;;;16.65;2.70;;;;;;;;;;5046886;28;20045;-72
2023/04/12 09:58:03;;;;;;;20.60;3.47;;;;;;;;;;5046531;28;20056;-73
2023/04/12 10:00:35;;;;;;;17.48;2.20;;;;;;;;;;5046381;28;20049;-73
2023/04/12 10:03:05;;;;;;;23.30;2.47;;;;;;;;;;5046480;28;20052;-73
2023/04/12 10:05:39;;;;;;;17.35;2.17;;;;;;;;;;5046609;28;20052;-74
2023/04/12 10:08:12;;;;;;;13.25;2.10;;;;;;;;;;5045236;28;20068;-75
2023/04/12 10:10:45;;;;;;;10.45;2.50;;;;;;;;;;5045876;28;20045;-73
2023/04/12 10:13:17;;;;;;;27.90;2.80;;;;;;;;;;5046423;28;20045;-73
2023/04/12 10:15:51;;;;;;;39.80;3.45;;;;;;;;;;5046162;28;20072;-73
2023/04/12 10:18:25;;;;;;;16.30;2.30;;;;;;;;;;5048289;28;20056;-72
2023/04/12 10:20:55;;;;;;;22.27;3.03;;;;;;;;;;5050781;28;20053;-73
2023/04/12 10:23:25;;;;;;;17.75;2.85;;;;;;;;;;5049527;28;20052;-73
2023/04/12 10:25:57;;;;;;;26.55;3.10;;;;;;;;;;5049747;28;20070;-74
2023/04/12 10:28:30;;;;;;;33.10;3.78;;;;;;;;;;5048780;28;20064;-73
2023/04/12 10:31:26;;;;;;;24.67;2.55;;;;;;;;;;5049618;28;20092;-72
2023/04/12 10:33:56;;;;;;;19.52;2.72;;;;;;;;;;5049447;28;20052;-76
2023/04/12 10:37:00;;;;;;;22.80;2.75;;;;;;;;;;5048765;28;20116;-73
2023/04/12 10:39:38;;;;;;;27.73;3.08;;;;;;;;;;5043974;28;20048;-72
2023/04/12 10:42:28;;;;;;;16.25;3.13;;;;;;;;;;5050666;28;20515;-72
2023/04/12 10:45:19;;;;;;;17.38;2.65;;;;;;;;;;5049034;28;20049;-73
2023/04/12 10:47:55;;;;;;;16.30;2.20;;;;;;;;;;5049539;28;20518;-73
2023/04/12 10:50:29;;;;;;;12.38;1.90;;;;;;;;;;5049406;28;20416;-73
2023/04/12 10:53:15;;;;;;;11.48;2.40;;;;;;;;;;5049478;28;20041;-73
2023/04/12 10:55:45;;;;;;;13.57;2.85;;;;;;;;;;5049577;28;20064;-73
2023/04/12 10:58:49;;;;;;;14.77;2.45;;;;;;;;;;5047764;28;20057;-74
2023/04/12 11:01:22;;;;;;;20.67;2.58;;;;;;;;;;5039317;28;20538;-73
2023/04/12 11:04:13;;;;;;;12.00;2.42;;;;;;;;;;5039873;28;20048;-75
2023/04/12 11:06:55;;;;;;;8.43;2.28;;;;;;;;;;5038596;28;20408;-74
2023/04/12 11:09:47;;;;;;;51.25;21.60;;;;;;;;;;5038311;28;20412;-75
2023/04/12 11:12:30;;;;;;;116.28;58.88;;;;;;;;;;5038315;28;20499;-73
2023/04/12 11:15:03;;;;;;;87.97;41.95;;;;;;;;;;5037922;28;20807;-73
2023/04/12 11:17:58;;;;;;;118.75;54.60;;;;;;;;;;5038309;28;20056;-73
2023/04/12 11:20:29;;;;;;;71.30;37.58;;;;;;;;;;5041882;28;20041;-74
2023/04/12 11:23:04;;;;;;;36.35;17.10;;;;;;;;;;5047891;28;20052;-73
2023/04/12 11:25:39;;;;;;;24.85;6.25;;;;;;;;;;5048591;28;20507;-74
2023/04/12 11:28:09;;;;;;;16.73;5.97;;;;;;;;;;5047642;28;20057;-74
2023/04/12 11:30:57;;;;;;;12.90;4.28;;;;;;;;;;5049207;28;20049;-73
2023/04/12 11:33:32;;;;;;;10.27;4.95;;;;;;;;;;5048923;28;20045;-76
2023/04/12 11:36:13;;;;;;;14.77;6.07;;;;;;;;;;5047458;28;20620;-74
2023/04/12 11:38:44;;;;;;;10.15;4.20;;;;;;;;;;5046168;28;20060;-74
2023/04/12 11:41:17;;;;;;;8.30;3.05;;;;;;;;;;5048625;28;20060;-75
2023/04/12 11:43:48;;;;;;;7.95;3.55;;;;;;;;;;5048587;28;20059;-74
2023/04/12 11:46:18;;;;;;;17.00;4.70;;;;;;;;;;5048693;28;20492;-80
2023/04/12 11:48:49;;;;;;;6.57;1.85;;;;;;;;;;5048243;28;20083;-74
2023/04/12 11:51:27;;;;;;;12.07;2.17;;;;;;;;;;5049239;28;20120;-76
2023/04/12 11:54:01;;;;;;;41.28;3.83;;;;;;;;;;5049229;28;20060;-74
2023/04/12 11:56:31;;;;;;;5.40;1.25;;;;;;;;;;5048708;28;20060;-74
2023/04/12 11:59:01;;;;;;;6.30;2.00;;;;;;;;;;5047748;28;20049;-74
2023/04/12 12:01:34;;;;;;;4.40;1.35;;;;;;;;;;5047978;28;20049;-74
2023/04/12 12:04:06;;;;;;;4.13;1.45;;;;;;;;;;5047970;28;20045;-75
2023/04/12 12:06:37;;;;;;;9.50;1.90;;;;;;;;;;5047872;28;20049;-74
2023/04/12 12:09:08;;;;;;;10.63;2.47;;;;;;;;;;5048003;28;20044;-74
2023/04/12 12:11:38;;;;;;;7.20;1.90;;;;;;;;;;5048142;28;20419;-72
2023/04/12 12:14:08;;;;;;;9.35;2.70;;;;;;;;;;5048094;28;20049;-75
2023/04/12 12:16:40;;;;;;;11.55;2.30;;;;;;;;;;5048641;28;20049;-80
2023/04/12 12:19:12;;;;;;;4.55;1.70;;;;;;;;;;5047647;28;20052;-74
2023/04/12 12:21:42;;;;;;;11.30;2.15;;;;;;;;;;5047824;28;20045;-74
2023/04/12 12:24:13;;;;;;;15.40;2.30;;;;;;;;;;5045923;28;20053;-75
2023/04/12 12:26:43;;;;;;;12.00;2.15;;;;;;;;;;5047886;28;20040;-74
2023/04/12 12:29:18;;;;;;;4.05;1.50;;;;;;;;;;5047502;28;20044;-73
2023/04/12 12:31:50;;;;;;;9.60;1.83;;;;;;;;;;5047073;28;20140;-72
2023/04/12 12:34:23;;;;;;;8.80;1.80;;;;;;;;;;5047410;28;20388;-73
2023/04/12 12:36:56;;;;;;;17.80;3.33;;;;;;;;;;5047662;28;20424;-75
2023/04/12 12:39:27;;;;;;;11.40;2.20;;;;;;;;;;5048118;28;20052;-76
2023/04/12 12:41:58;;;;;;;8.65;2.42;;;;;;;;;;5046973;28;20428;-72
2023/04/12 12:44:28;;;;;;;3.63;1.50;;;;;;;;;;5044829;28;20044;-73
2023/04/12 12:47:04;;;;;;;5.68;1.45;;;;;;;;;;5047031;28;20049;-72
2023/04/12 12:49:43;;;;;;;2.60;1.50;;;;;;;;;;5047822;28;20393;-73
2023/04/12 12:52:14;;;;;;;5.78;2.25;;;;;;;;;;5047313;28;20049;-72
2023/04/12 12:54:45;;;;;;;7.75;1.85;;;;;;;;;;5047198;28;20045;-73
2023/04/12 12:57:15;;;;;;;11.40;1.63;;;;;;;;;;5045919;28;20052;-75
2023/04/12 12:59:47;;;;;;;7.00;1.65;;;;;;;;;;5047568;28;20048;-73
2023/04/12 13:02:18;;;;;;;7.03;2.00;;;;;;;;;;5047732;28;20060;-73
2023/04/12 13:04:49;;;;;;;7.75;2.92;;;;;;;;;;5047170;28;20124;-72
2023/04/12 13:07:19;;;;;;;3.67;1.70;;;;;;;;;;5046846;28;20123;-72
2023/04/12 13:09:50;;;;;;;5.82;1.75;;;;;;;;;;5046997;28;20045;-73
2023/04/12 13:12:21;;;;;;;9.75;2.20;;;;;;;;;;5046587;28;20044;-73
2023/04/12 13:14:51;;;;;;;5.30;1.52;;;;;;;;;;5046502;28;20045;-73
2023/04/12 13:17:41;;;;;;;7.00;2.70;;;;;;;;;;5046674;28;20056;-73
2023/04/12 13:20:11;;;;;;;4.68;2.00;;;;;;;;;;5046501;28;20522;-72
2023/04/12 13:22:42;;;;;;;7.13;2.00;;;;;;;;;;5046811;28;20056;-72
2023/04/12 13:25:12;;;;;;;7.72;1.77;;;;;;;;;;5047007;28;20053;-74
2023/04/12 13:27:43;;;;;;;7.82;1.98;;;;;;;;;;5047747;28;20502;-73
2023/04/12 13:30:13;;;;;;;8.07;2.67;;;;;;;;;;5046691;28;20496;-72
2023/04/12 13:32:44;;;;;;;4.07;1.73;;;;;;;;;;5046441;28;20045;-76
2023/04/12 13:35:14;;;;;;;6.85;2.10;;;;;;;;;;5046661;28;20415;-73
2023/04/12 13:37:45;;;;;;;7.38;2.40;;;;;;;;;;5046481;28;20388;-75
2023/04/12 13:40:14;;;;;;;25.15;2.70;;;;;;;;;;5046707;28;20534;-75
2023/04/12 13:42:46;;;;;;;7.70;2.03;;;;;;;;;;5046468;28;20053;-75
2023/04/12 13:45:16;;;;;;;12.50;2.22;;;;;;;;;;5046616;28;20053;-73
2023/04/12 13:47:47;;;;;;;4.47;1.52;;;;;;;;;;5046277;28;20053;-72
2023/04/12 13:50:17;;;;;;;7.07;1.60;;;;;;;;;;5045672;28;20408;-73
2023/04/12 13:52:50;;;;;;;7.80;1.77;;;;;;;;;;5046262;28;20064;-74
2023/04/12 13:55:20;;;;;;;2.72;1.40;;;;;;;;;;5050802;28;20041;-73
2023/04/12 13:57:50;;;;;;;5.85;1.30;;;;;;;;;;5050397;28;20052;-74
2023/04/12 14:00:21;;;;;;;4.03;1.30;;;;;;;;;;5050563;28;20037;-73
2023/04/12 14:03:40;;;;;;;3.78;1.38;;;;;;;;;;5049906;28;20052;-76
2023/04/12 14:06:11;;;;;;;4.93;1.27;;;;;;;;;;5050324;28;20495;-76
2023/04/12 14:08:43;;;;;;;4.78;2.08;;;;;;;;;;5050295;28;20049;-74
2023/04/12 14:11:16;;;;;;;5.28;1.20;;;;;;;;;;5050634;28;20040;-75
2023/04/12 14:13:46;;;;;;;11.20;1.70;;;;;;;;;;5050214;28;20415;-76
2023/04/12 14:16:17;;;;;;;2.88;1.60;;;;;;;;;;5050143;28;20052;-74
2023/04/12 14:18:48;;;;;;;2.17;1.10;;;;;;;;;;5049416;28;20052;-79
2023/04/12 14:21:19;;;;;;;7.22;1.63;;;;;;;;;;5050689;28;20048;-74
2023/04/12 14:23:50;;;;;;;3.05;1.45;;;;;;;;;;5050673;28;20052;-76
2023/04/12 14:26:20;;;;;;;3.88;2.03;;;;;;;;;;5048901;28;20085;-74
2023/04/12 14:28:51;;;;;;;12.57;1.73;;;;;;;;;;5049701;28;20053;-75
2023/04/12 14:31:21;;;;;;;11.02;2.60;;;;;;;;;;5049865;28;20048;-76
2023/04/12 14:33:52;;;;;;;3.33;1.30;;;;;;;;;;5048919;28;20060;-75
2023/04/12 14:36:23;;;;;;;8.35;1.52;;;;;;;;;;5049878;28;20044;-75
2023/04/12 14:38:55;;;;;;;2.30;1.13;;;;;;;;;;5050097;28;20499;-74
2023/04/12 14:41:25;;;;;;;3.40;1.33;;;;;;;;;;5049485;28;20045;-74
2023/04/12 14:43:56;;;;;;;3.33;1.33;;;;;;;;;;5050046;28;20049;-74
2023/04/12 14:46:27;;;;;;;5.03;1.40;;;;;;;;;;5049995;28;20053;-76
2023/04/12 14:48:59;;;;;;;8.48;2.55;;;;;;;;;;5049538;28;20055;-74
2023/04/12 14:51:31;;;;;;;6.80;1.58;;;;;;;;;;5049554;28;20533;-75
2023/04/12 14:54:01;;;;;;;10.75;5.55;;;;;;;;;;5049270;28;20041;-75
2023/04/12 14:56:31;;;;;;;4.03;1.10;;;;;;;;;;5048488;28;20048;-74
2023/04/12 14:59:08;;;;;;;9.23;2.50;;;;;;;;;;5047309;28;20056;-74
2023/04/12 15:01:38;;;;;;;2.97;2.05;;;;;;;;;;5049929;28;20048;-73
2023/04/12 15:04:08;;;;;;;6.45;1.40;;;;;;;;;;5048883;28;20045;-74
2023/04/12 15:06:41;;;;;;;2.85;1.17;;;;;;;;;;5049391;28;20059;-73
2023/04/12 15:09:16;;;;;;;3.65;1.02;;;;;;;;;;5050129;28;20048;-73
2023/04/12 15:11:53;;;;;;;6.78;1.55;;;;;;;;;;5049502;28;20055;-76
2023/04/12 15:14:24;;;;;;;2.65;1.08;;;;;;;;;;5049025;28;20044;-75
2023/04/12 15:16:54;;;;;;;2.65;1.40;;;;;;;;;;5048847;28;20053;-74
2023/04/12 15:19:26;;;;;;;5.25;1.30;;;;;;;;;;5049022;28;20065;-73
2023/04/12 15:21:57;;;;;;;2.08;1.02;;;;;;;;;;5047497;28;20534;-77